Time;durP1;ratioP1;P1;durP2;ratioP2;P2;SDS_P1;SDS_P2;PMS_P1;PMS_P2;Temp;Humidity;BMP_temperature;BMP_pressure;BME280_temperature;BME280_humidity;BME280_pressure;Samples;Min_cycle;Max_cycle;Signal;HPM_P1;HPM_P2
2021/04/25 00:02:04;;;;;;;4.50;1.77;;;5.90;74.30;;;;;;5036268;28;20587;-68
2021/04/25 00:04:31;;;;;;;3.80;1.40;;;5.80;74.20;;;;;;5041799;28;20054;-68
2021/04/25 00:06:59;;;;;;;6.45;2.13;;;5.90;73.90;;;;;;5041399;28;20922;-68
2021/04/25 00:09:26;;;;;;;5.88;2.88;;;5.90;73.90;;;;;;5041665;28;20072;-68
2021/04/25 00:11:54;;;;;;;7.10;2.97;;;5.90;73.60;;;;;;5040879;28;20104;-68
2021/04/25 00:14:21;;;;;;;4.63;2.22;;;5.90;74.00;;;;;;5041887;28;20037;-67
2021/04/25 00:16:48;;;;;;;6.10;2.45;;;5.70;74.30;;;;;;5041670;28;20049;-68
2021/04/25 00:19:15;;;;;;;5.85;2.15;;;5.70;74.80;;;;;;5042422;28;20047;-67
2021/04/25 00:21:42;;;;;;;8.38;2.42;;;5.60;75.10;;;;;;5040388;28;20360;-68
2021/04/25 00:24:10;;;;;;;5.45;2.42;;;5.60;74.90;;;;;;5023910;28;20068;-68
2021/04/25 00:26:37;;;;;;;4.47;2.25;;;5.60;75.80;;;;;;5041368;28;20041;-68
2021/04/25 00:29:08;;;;;;;5.28;1.75;;;5.50;75.90;;;;;;5041277;28;20045;-68
2021/04/25 00:31:34;;;;;;;5.63;2.03;;;5.40;76.00;;;;;;5041663;28;20104;-67
2021/04/25 00:34:08;;;;;;;7.00;2.13;;;5.40;75.80;;;;;;5040695;28;20061;-67
2021/04/25 00:36:35;;;;;;;7.15;2.78;;;5.40;76.00;;;;;;5040422;28;20134;-68
2021/04/25 00:39:05;;;;;;;5.10;2.30;;;5.20;76.40;;;;;;5040997;28;20438;-68
2021/04/25 00:41:33;;;;;;;5.68;1.80;;;5.10;77.00;;;;;;5039773;28;20060;-68
2021/04/25 00:44:15;;;;;;;5.25;1.67;;;5.00;77.20;;;;;;5032017;28;20099;-68
2021/04/25 00:46:41;;;;;;;3.92;1.75;;;4.80;77.70;;;;;;5039551;28;20069;-68
2021/04/25 00:49:08;;;;;;;3.60;1.83;;;4.80;77.50;;;;;;5039814;28;20055;-68
2021/04/25 00:51:41;;;;;;;3.47;1.30;;;4.80;77.40;;;;;;5039031;28;20140;-68
2021/04/25 00:54:08;;;;;;;5.22;1.30;;;4.80;77.10;;;;;;5054300;28;20088;-68
2021/04/25 00:56:36;;;;;;;4.32;1.60;;;4.80;77.50;;;;;;5053641;28;20128;-68
2021/04/25 00:59:06;;;;;;;3.60;1.92;;;4.70;77.70;;;;;;5039698;28;20049;-68
2021/04/25 01:01:33;;;;;;;5.10;1.83;;;4.60;78.00;;;;;;5034824;28;20052;-67
2021/04/25 01:04:00;;;;;;;5.05;1.73;;;4.60;78.30;;;;;;5038754;28;20424;-67
2021/04/25 01:06:29;;;;;;;4.25;1.65;;;4.50;78.20;;;;;;5039693;28;20069;-67
2021/04/25 01:08:56;;;;;;;3.05;1.17;;;4.60;78.10;;;;;;5038297;28;20053;-68
2021/04/25 01:11:23;;;;;;;7.00;1.50;;;4.50;78.50;;;;;;5039031;28;20115;-68
2021/04/25 01:13:51;;;;;;;3.53;1.30;;;4.40;78.40;;;;;;5039048;28;20059;-68
2021/04/25 01:16:18;;;;;;;4.35;1.65;;;4.40;78.40;;;;;;5041880;28;20114;-68
2021/04/25 01:18:45;;;;;;;6.97;1.75;;;4.40;78.60;;;;;;5039997;28;20057;-67
2021/04/25 01:21:14;;;;;;;2.78;1.30;;;4.40;78.50;;;;;;5041113;28;20060;-67
2021/04/25 01:23:41;;;;;;;4.10;1.77;;;4.30;78.90;;;;;;5040139;28;20337;-68
2021/04/25 01:26:10;;;;;;;2.92;1.23;;;4.20;79.30;;;;;;5038801;28;20268;-68
2021/04/25 01:28:37;;;;;;;6.25;1.58;;;4.20;79.20;;;;;;5040938;28;20052;-68
2021/04/25 01:31:05;;;;;;;5.88;2.38;;;4.20;79.40;;;;;;5040329;28;20061;-68
2021/04/25 01:33:33;;;;;;;5.90;1.92;;;4.10;79.60;;;;;;5041355;28;20087;-68
2021/04/25 01:36:00;;;;;;;6.13;1.73;;;4.10;79.70;;;;;;5064541;28;21080;-68
2021/04/25 01:38:30;;;;;;;4.22;1.55;;;4.00;79.90;;;;;;5049578;28;20064;-67
2021/04/25 01:40:57;;;;;;;4.47;1.77;;;4.10;79.40;;;;;;5048442;28;20104;-68
2021/04/25 01:43:24;;;;;;;4.65;2.00;;;4.00;79.90;;;;;;5049008;28;20387;-67
2021/04/25 01:45:59;;;;;;;4.53;2.15;;;4.10;80.20;;;;;;5049816;28;20087;-68
2021/04/25 01:48:26;;;;;;;3.85;1.63;;;4.00;80.10;;;;;;5037957;28;20055;-68
2021/04/25 01:50:53;;;;;;;5.55;1.42;;;3.90;80.70;;;;;;5037172;28;20084;-68
2021/04/25 01:53:20;;;;;;;3.72;1.52;;;3.80;80.50;;;;;;5038670;28;20048;-68
2021/04/25 01:55:49;;;;;;;2.85;1.42;;;3.80;80.80;;;;;;5036862;28;20289;-68
2021/04/25 01:58:24;;;;;;;3.85;1.55;;;3.60;80.40;;;;;;5039446;28;20340;-68
2021/04/25 02:00:51;;;;;;;4.00;1.40;;;3.60;80.90;;;;;;5032338;28;20754;-68
2021/04/25 02:03:18;;;;;;;4.45;1.45;;;3.50;81.10;;;;;;5040754;28;20109;-68
2021/04/25 02:05:45;;;;;;;3.25;1.35;;;3.40;81.50;;;;;;5045519;28;20061;-67
2021/04/25 02:08:14;;;;;;;5.07;1.65;;;3.40;81.70;;;;;;5040957;28;20061;-69
2021/04/25 02:10:42;;;;;;;3.55;1.42;;;3.40;81.50;;;;;;5035461;28;20116;-68
2021/04/25 02:13:10;;;;;;;9.43;1.85;;;3.30;81.50;;;;;;5040439;28;20092;-68
2021/04/25 02:15:37;;;;;;;4.50;1.40;;;3.30;81.70;;;;;;5037879;28;20050;-69
2021/04/25 02:18:05;;;;;;;3.80;1.73;;;3.30;82.00;;;;;;5042806;28;20109;-68
2021/04/25 02:20:33;;;;;;;3.53;1.50;;;3.20;81.90;;;;;;5047905;28;20072;-68
2021/04/25 02:23:00;;;;;;;2.20;1.17;;;3.20;81.90;;;;;;5040320;28;20559;-68
2021/04/25 02:25:27;;;;;;;3.92;1.83;;;3.20;82.20;;;;;;5042351;28;20248;-68
2021/04/25 02:27:55;;;;;;;5.15;1.48;;;3.10;81.90;;;;;;5039454;28;20152;-68
2021/04/25 02:30:25;;;;;;;7.05;1.60;;;3.20;81.80;;;;;;5051766;28;20056;-68
2021/04/25 02:32:52;;;;;;;5.03;2.83;;;3.10;82.00;;;;;;5038333;28;20057;-67
2021/04/25 02:35:20;;;;;;;3.28;1.77;;;3.10;82.00;;;;;;5042772;28;20056;-68
2021/04/25 02:37:48;;;;;;;2.95;1.17;;;3.20;81.70;;;;;;5040057;28;20053;-68
2021/04/25 02:40:17;;;;;;;4.07;1.83;;;3.20;81.90;;;;;;5041848;28;20049;-68
2021/04/25 02:42:47;;;;;;;6.78;2.10;;;3.10;82.20;;;;;;5041102;28;20372;-68
2021/04/25 02:45:15;;;;;;;8.65;2.50;;;3.10;82.60;;;;;;5040249;28;20216;-68
2021/04/25 02:47:45;;;;;;;3.47;1.42;;;3.00;82.70;;;;;;5023189;28;20057;-68
2021/04/25 02:50:13;;;;;;;5.88;1.98;;;3.00;82.60;;;;;;5041404;28;20061;-68
2021/04/25 02:52:40;;;;;;;3.80;2.30;;;2.90;82.70;;;;;;5040212;28;20360;-67
2021/04/25 02:55:08;;;;;;;5.20;2.17;;;2.90;82.60;;;;;;5041788;28;20087;-68
2021/04/25 02:57:35;;;;;;;2.75;1.08;;;2.80;82.70;;;;;;5041716;28;20037;-68
2021/04/25 03:00:05;;;;;;;4.82;1.42;;;2.80;82.60;;;;;;5039559;28;20060;-68
2021/04/25 03:02:32;;;;;;;4.78;1.65;;;2.80;82.50;;;;;;5040765;28;20110;-69
2021/04/25 03:05:04;;;;;;;5.80;2.25;;;2.90;82.40;;;;;;5040012;28;20732;-68
2021/04/25 03:07:31;;;;;;;3.17;1.60;;;2.80;82.60;;;;;;5041581;28;20080;-68
2021/04/25 03:09:59;;;;;;;4.82;2.15;;;2.70;83.20;;;;;;5040327;28;20383;-69
2021/04/25 03:12:26;;;;;;;4.80;1.80;;;2.80;83.30;;;;;;5041367;28;20087;-68
2021/04/25 03:14:53;;;;;;;4.07;1.95;;;2.70;83.70;;;;;;5040700;28;20057;-69
2021/04/25 03:17:20;;;;;;;2.78;1.35;;;2.70;83.50;;;;;;5043521;28;20095;-69
2021/04/25 03:19:47;;;;;;;4.35;1.30;;;2.70;83.40;;;;;;5042089;28;20116;-69
2021/04/25 03:22:15;;;;;;;6.18;1.98;;;2.60;83.60;;;;;;5041802;28;20048;-68
2021/04/25 03:24:42;;;;;;;10.82;3.55;;;2.50;83.70;;;;;;5042034;28;20061;-68
2021/04/25 03:27:09;;;;;;;3.35;1.42;;;2.50;83.60;;;;;;5042995;28;20148;-68
2021/04/25 03:29:36;;;;;;;7.10;2.05;;;2.40;84.00;;;;;;5041770;28;20045;-69
2021/04/25 03:32:06;;;;;;;3.17;1.17;;;2.40;84.00;;;;;;5032896;28;20061;-68
2021/04/25 03:34:32;;;;;;;4.03;1.88;;;2.30;83.90;;;;;;5049525;28;20052;-67
2021/04/25 03:37:00;;;;;;;5.38;2.03;;;2.30;84.00;;;;;;5059351;28;21298;-69
2021/04/25 03:39:34;;;;;;;5.78;2.10;;;2.30;83.80;;;;;;5058774;28;20060;-68
2021/04/25 03:42:03;;;;;;;4.10;1.83;;;2.30;84.20;;;;;;5059533;28;20092;-68
2021/04/25 03:44:31;;;;;;;3.42;1.85;;;2.30;83.90;;;;;;5060635;28;20049;-68
2021/04/25 03:46:59;;;;;;;4.32;1.77;;;2.20;84.10;;;;;;5061410;28;20240;-68
2021/04/25 03:49:26;;;;;;;3.95;1.80;;;2.30;84.00;;;;;;5061844;28;20212;-67
2021/04/25 03:51:55;;;;;;;6.45;1.98;;;2.20;84.20;;;;;;5062866;28;20453;-69
2021/04/25 03:54:23;;;;;;;4.00;1.42;;;2.20;84.40;;;;;;5061959;28;20041;-68
2021/04/25 03:56:52;;;;;;;4.05;2.08;;;2.10;84.30;;;;;;5062160;28;20041;-67
2021/04/25 03:59:19;;;;;;;4.50;1.70;;;2.10;84.40;;;;;;5058818;28;20044;-68
2021/04/25 04:01:46;;;;;;;5.47;1.92;;;2.10;84.30;;;;;;5048177;28;20056;-68
2021/04/25 04:04:13;;;;;;;5.10;2.20;;;2.10;84.40;;;;;;5055815;28;20060;-68
2021/04/25 04:06:40;;;;;;;5.28;2.03;;;2.00;84.20;;;;;;5052748;28;20064;-68
2021/04/25 04:09:07;;;;;;;3.20;1.42;;;2.00;84.00;;;;;;5029714;28;20045;-68
2021/04/25 04:11:34;;;;;;;7.65;1.90;;;1.90;84.10;;;;;;5050785;28;20073;-68
2021/04/25 04:14:05;;;;;;;4.50;1.85;;;1.90;84.00;;;;;;5048104;28;20056;-68
2021/04/25 04:16:32;;;;;;;3.78;1.90;;;2.00;84.20;;;;;;5045257;28;20412;-68
2021/04/25 04:18:59;;;;;;;4.25;1.63;;;1.90;84.20;;;;;;5047176;28;21156;-68
2021/04/25 04:21:26;;;;;;;5.07;1.80;;;1.80;84.50;;;;;;5044887;28;20064;-67
2021/04/25 04:23:53;;;;;;;5.57;2.80;;;1.90;84.60;;;;;;5045776;28;20117;-68
2021/04/25 04:26:21;;;;;;;4.65;2.10;;;1.90;84.50;;;;;;5045515;28;20360;-68
2021/04/25 04:28:48;;;;;;;3.85;1.40;;;1.90;84.50;;;;;;5060755;28;20189;-68
2021/04/25 04:31:16;;;;;;;4.10;1.88;;;1.90;84.70;;;;;;5045170;28;20049;-68
2021/04/25 04:33:43;;;;;;;6.43;1.83;;;1.90;85.00;;;;;;5044532;28;20068;-68
2021/04/25 04:36:10;;;;;;;6.30;2.03;;;1.90;84.70;;;;;;5032716;28;20042;-68
2021/04/25 04:38:36;;;;;;;7.80;1.98;;;1.90;84.40;;;;;;5029628;28;20121;-68
2021/04/25 04:41:03;;;;;;;3.40;1.65;;;1.90;84.50;;;;;;5023411;28;20331;-67
2021/04/25 04:43:30;;;;;;;7.93;2.63;;;1.90;84.40;;;;;;5025853;28;20045;-67
2021/04/25 04:45:57;;;;;;;4.38;1.88;;;1.90;84.10;;;;;;5026486;28;20073;-67
2021/04/25 04:48:25;;;;;;;2.88;1.48;;;2.00;84.30;;;;;;5027025;28;20148;-68
2021/04/25 04:50:52;;;;;;;5.53;1.50;;;2.00;84.50;;;;;;5024977;28;20576;-68
2021/04/25 04:53:19;;;;;;;6.22;1.92;;;2.00;84.40;;;;;;5025252;28;20345;-67
2021/04/25 04:55:47;;;;;;;3.95;1.48;;;2.00;84.50;;;;;;5021755;28;20327;-68
2021/04/25 04:58:14;;;;;;;3.25;1.40;;;2.00;84.60;;;;;;5027385;28;20264;-68
2021/04/25 05:00:40;;;;;;;8.25;2.20;;;2.10;84.60;;;;;;5022053;28;20050;-68
2021/04/25 05:03:07;;;;;;;4.90;2.25;;;2.00;84.60;;;;;;5025223;28;20129;-68
2021/04/25 05:05:35;;;;;;;7.07;2.30;;;2.10;84.40;;;;;;5008505;28;20081;-67
2021/04/25 05:08:04;;;;;;;7.25;2.25;;;2.20;84.40;;;;;;5025753;28;20053;-68
2021/04/25 05:10:30;;;;;;;6.57;2.15;;;2.20;84.20;;;;;;5031155;28;20243;-68
2021/04/25 05:12:57;;;;;;;5.63;1.98;;;2.30;84.10;;;;;;5033679;28;20451;-67
2021/04/25 05:15:24;;;;;;;4.35;1.80;;;2.40;84.10;;;;;;5026839;28;20080;-68
2021/04/25 05:17:53;;;;;;;4.32;1.95;;;2.50;83.90;;;;;;5023432;28;20049;-68
2021/04/25 05:20:20;;;;;;;4.90;2.22;;;2.60;83.60;;;;;;5024850;28;20056;-68
2021/04/25 05:22:48;;;;;;;4.53;2.67;;;2.70;83.60;;;;;;5025684;28;20064;-67
2021/04/25 05:25:15;;;;;;;4.72;2.00;;;2.80;83.40;;;;;;5025011;28;20497;-69
2021/04/25 05:27:42;;;;;;;4.50;2.53;;;3.00;83.20;;;;;;5028294;28;20076;-67
2021/04/25 05:30:10;;;;;;;6.90;2.42;;;3.00;83.10;;;;;;5031620;28;20336;-67
2021/04/25 05:32:37;;;;;;;6.60;2.88;;;3.00;83.10;;;;;;5027307;28;20108;-68
2021/04/25 05:35:05;;;;;;;4.85;2.25;;;3.10;83.20;;;;;;5037900;28;20055;-67
2021/04/25 05:37:32;;;;;;;8.93;2.85;;;3.20;83.10;;;;;;5047119;28;20340;-68
2021/04/25 05:40:00;;;;;;;8.48;2.58;;;3.30;82.90;;;;;;5044014;28;20737;-68
2021/04/25 05:42:28;;;;;;;8.63;3.30;;;3.50;82.60;;;;;;5047977;28;20048;-68
2021/04/25 05:44:58;;;;;;;9.93;3.50;;;3.60;82.10;;;;;;5046874;28;20221;-67
2021/04/25 05:47:25;;;;;;;4.10;1.70;;;3.80;81.50;;;;;;5046841;28;20080;-68
2021/04/25 05:49:52;;;;;;;5.15;2.22;;;4.00;80.50;;;;;;5055110;28;20067;-69
2021/04/25 05:52:21;;;;;;;5.22;1.90;;;4.10;79.70;;;;;;5047432;28;20049;-68
2021/04/25 05:54:48;;;;;;;7.40;2.38;;;4.20;78.50;;;;;;5047260;28;20068;-68
2021/04/25 05:57:16;;;;;;;5.22;2.20;;;4.40;78.30;;;;;;5055708;28;20359;-68
2021/04/25 05:59:43;;;;;;;8.30;2.20;;;4.50;77.50;;;;;;5051569;28;20072;-67
2021/04/25 06:02:10;;;;;;;3.63;1.20;;;4.70;76.50;;;;;;5047068;28;20048;-68
2021/04/25 06:04:40;;;;;;;6.20;1.40;;;4.80;75.70;;;;;;5047842;28;20072;-67
2021/04/25 06:07:10;;;;;;;3.13;1.48;;;4.90;75.20;;;;;;5045922;28;20041;-68
2021/04/25 06:09:37;;;;;;;4.35;1.42;;;5.10;74.00;;;;;;5050740;28;20049;-68
2021/04/25 06:12:04;;;;;;;5.35;1.95;;;5.20;73.70;;;;;;5062752;28;20086;-68
2021/04/25 06:14:32;;;;;;;3.42;1.45;;;5.30;73.20;;;;;;5049126;28;20260;-68
2021/04/25 06:16:59;;;;;;;5.85;1.70;;;5.40;72.40;;;;;;5045000;28;20232;-68
2021/04/25 06:19:26;;;;;;;8.88;1.65;;;5.60;70.90;;;;;;5047679;28;20139;-68
2021/04/25 06:21:53;;;;;;;4.55;2.33;;;5.70;71.00;;;;;;5044211;28;20069;-67
2021/04/25 06:24:19;;;;;;;4.30;1.75;;;5.70;70.70;;;;;;5051287;28;20104;-67
2021/04/25 06:26:46;;;;;;;5.78;1.67;;;5.70;70.40;;;;;;5046780;28;20320;-69
2021/04/25 06:29:13;;;;;;;3.58;1.00;;;5.90;69.70;;;;;;5048305;28;20088;-69
2021/04/25 06:31:46;;;;;;;3.03;1.08;;;6.00;68.80;;;;;;5046022;28;20057;-68
2021/04/25 06:34:13;;;;;;;4.40;1.40;;;6.10;68.20;;;;;;5041120;28;20053;-71
2021/04/25 06:36:43;;;;;;;2.80;1.20;;;6.10;67.80;;;;;;5026405;28;20121;-68
2021/04/25 06:39:11;;;;;;;5.00;1.57;;;6.20;67.20;;;;;;5027060;28;20046;-68
2021/04/25 06:41:38;;;;;;;4.95;1.30;;;6.20;66.80;;;;;;5029565;28;20325;-68
2021/04/25 06:44:07;;;;;;;12.88;1.92;;;6.30;67.40;;;;;;5028043;28;20360;-68
2021/04/25 06:46:34;;;;;;;4.85;0.85;;;6.40;66.60;;;;;;5026846;28;20057;-67
2021/04/25 06:49:02;;;;;;;4.53;1.70;;;6.50;66.40;;;;;;5029223;28;20059;-68
2021/04/25 06:51:29;;;;;;;7.38;1.30;;;6.60;65.80;;;;;;5024357;28;20184;-67
2021/04/25 06:53:58;;;;;;;6.65;1.20;;;6.70;65.50;;;;;;5027330;28;20064;-67
2021/04/25 06:56:25;;;;;;;5.95;1.30;;;6.80;65.30;;;;;;5027747;28;20284;-68
2021/04/25 06:58:52;;;;;;;2.45;0.98;;;6.80;64.90;;;;;;5028831;28;20587;-68
2021/04/25 07:01:19;;;;;;;2.00;0.85;;;6.90;64.50;;;;;;5021235;28;20061;-68
2021/04/25 07:03:54;;;;;;;3.53;1.35;;;6.90;64.80;;;;;;5026769;28;20060;-66
2021/04/25 07:06:22;;;;;;;3.72;1.10;;;7.00;63.90;;;;;;5032559;28;20367;-68
2021/04/25 07:08:49;;;;;;;3.15;0.85;;;7.00;63.40;;;;;;5024794;28;20420;-68
2021/04/25 07:11:16;;;;;;;3.13;1.02;;;7.20;64.00;;;;;;5038360;28;20060;-67
2021/04/25 07:13:43;;;;;;;3.55;1.13;;;7.20;62.60;;;;;;5033723;28;20128;-68
2021/04/25 07:16:10;;;;;;;5.18;1.30;;;7.20;62.90;;;;;;5030896;28;20049;-68
2021/04/25 07:18:37;;;;;;;2.38;0.95;;;7.40;62.40;;;;;;5025563;28;20130;-68
2021/04/25 07:21:10;;;;;;;12.02;1.67;;;7.40;62.10;;;;;;5028854;28;20129;-68
2021/04/25 07:23:38;;;;;;;3.40;1.55;;;7.50;62.50;;;;;;5029632;28;20084;-69
2021/04/25 07:26:09;;;;;;;4.72;1.13;;;7.60;62.10;;;;;;5027801;28;20360;-68
2021/04/25 07:28:37;;;;;;;9.50;1.50;;;7.70;61.40;;;;;;5026161;28;20057;-68
2021/04/25 07:31:12;;;;;;;5.85;1.38;;;7.70;60.70;;;;;;5029478;28;20041;-69
2021/04/25 07:33:39;;;;;;;4.82;1.20;;;7.80;60.70;;;;;;5030618;28;20054;-68
2021/04/25 07:36:09;;;;;;;4.07;1.20;;;7.90;60.20;;;;;;5025108;28;20080;-67
2021/04/25 07:38:38;;;;;;;3.22;1.20;;;8.00;60.50;;;;;;5022383;28;20056;-68
2021/04/25 07:41:07;;;;;;;3.95;1.08;;;8.10;59.10;;;;;;5025347;28;20083;-68
2021/04/25 07:43:34;;;;;;;5.68;2.00;;;8.10;59.20;;;;;;5029609;28;20726;-68
2021/04/25 07:46:01;;;;;;;4.97;1.63;;;8.20;59.20;;;;;;5026586;28;20340;-68
2021/04/25 07:48:29;;;;;;;4.30;1.83;;;8.30;59.50;;;;;;5026738;28;20061;-68
2021/04/25 07:50:56;;;;;;;3.95;1.60;;;8.40;59.60;;;;;;5025673;28;20124;-68
2021/04/25 07:53:23;;;;;;;3.58;1.35;;;8.50;58.80;;;;;;5033817;28;20065;-68
2021/04/25 07:55:50;;;;;;;5.68;1.42;;;8.60;58.00;;;;;;5032780;28;20398;-68
2021/04/25 07:58:17;;;;;;;4.10;1.58;;;8.70;58.00;;;;;;5026133;28;20361;-68
2021/04/25 08:00:57;;;;;;;4.60;1.40;;;8.70;57.50;;;;;;5025009;28;20041;-69
2021/04/25 08:03:30;;;;;;;4.60;1.35;;;8.80;57.70;;;;;;5024957;28;20041;-69
2021/04/25 08:05:57;;;;;;;4.35;1.60;;;9.00;56.80;;;;;;5021918;28;20121;-68
2021/04/25 08:08:24;;;;;;;4.38;1.50;;;9.10;57.10;;;;;;5028507;28;20157;-68
2021/04/25 08:10:52;;;;;;;5.60;1.00;;;9.20;57.00;;;;;;5027483;28;20068;-69
2021/04/25 08:13:19;;;;;;;6.72;1.48;;;9.20;56.20;;;;;;5024738;28;20053;-68
2021/04/25 08:15:45;;;;;;;4.22;1.42;;;9.30;55.70;;;;;;5024018;28;20352;-69
2021/04/25 08:18:12;;;;;;;7.38;1.48;;;9.30;55.80;;;;;;5029304;28;20053;-68
2021/04/25 08:20:40;;;;;;;3.13;1.23;;;9.40;55.30;;;;;;5022920;28;20053;-67
2021/04/25 08:23:07;;;;;;;3.78;1.42;;;9.50;54.80;;;;;;5024691;28;20384;-68
2021/04/25 08:25:34;;;;;;;3.75;1.70;;;9.50;55.40;;;;;;5021617;28;20084;-68
2021/04/25 08:28:04;;;;;;;5.88;1.55;;;9.60;55.40;;;;;;5025671;28;20079;-68
2021/04/25 08:30:31;;;;;;;8.17;1.53;;;9.70;54.60;;;;;;5024208;28;20099;-68
2021/04/25 08:33:12;;;;;;;5.15;2.15;;;9.80;54.50;;;;;;5019891;28;21179;-67
2021/04/25 08:35:39;;;;;;;4.25;1.60;;;9.90;54.30;;;;;;5025240;28;20128;-68
2021/04/25 08:38:06;;;;;;;3.13;1.10;;;10.00;53.60;;;;;;5025708;28;20053;-68
2021/04/25 08:40:33;;;;;;;6.45;1.38;;;10.10;54.00;;;;;;5023167;28;20057;-68
2021/04/25 08:43:00;;;;;;;4.05;1.30;;;10.10;52.80;;;;;;5026351;28;20483;-68
2021/04/25 08:45:32;;;;;;;5.50;1.40;;;10.20;53.00;;;;;;5022260;28;20582;-68
2021/04/25 08:48:01;;;;;;;4.38;1.52;;;10.40;52.00;;;;;;5027807;28;21420;-68
2021/04/25 08:50:30;;;;;;;4.75;1.70;;;10.40;51.80;;;;;;5008996;28;20685;-68
2021/04/25 08:53:03;;;;;;;13.68;2.80;;;10.40;51.50;;;;;;5009308;28;20319;-68
2021/04/25 08:55:31;;;;;;;5.65;1.55;;;10.50;52.60;;;;;;5023630;28;20077;-68
2021/04/25 08:57:58;;;;;;;7.45;2.33;;;10.50;52.70;;;;;;5025029;28;20064;-68
2021/04/25 09:00:25;;;;;;;3.45;1.33;;;10.60;52.20;;;;;;5023964;28;20045;-68
2021/04/25 09:02:58;;;;;;;5.38;1.67;;;10.70;52.90;;;;;;5025217;28;20046;-68
2021/04/25 09:05:25;;;;;;;5.93;1.80;;;10.80;52.30;;;;;;5025922;28;20416;-68
2021/04/25 09:07:54;;;;;;;4.03;1.80;;;10.70;51.20;;;;;;5005711;28;20069;-68
2021/04/25 09:10:25;;;;;;;6.00;1.52;;;10.80;50.90;;;;;;5024609;28;20072;-69
2021/04/25 09:12:52;;;;;;;5.50;1.48;;;10.90;51.00;;;;;;5034012;28;20083;-68
2021/04/25 09:15:27;;;;;;;7.68;1.67;;;11.10;51.10;;;;;;5006862;28;20069;-67
2021/04/25 09:17:56;;;;;;;3.42;1.45;;;11.20;50.70;;;;;;5028336;28;20053;-68
2021/04/25 09:20:37;;;;;;;7.47;1.58;;;11.40;49.70;;;;;;5027520;28;20068;-67
2021/04/25 09:23:12;;;;;;;3.25;1.25;;;11.60;49.30;;;;;;5026499;28;21645;-68
2021/04/25 09:25:53;;;;;;;5.10;1.88;;;11.70;47.90;;;;;;5022669;28;20064;-69
2021/04/25 09:28:20;;;;;;;6.15;1.50;;;11.70;47.60;;;;;;5032176;28;20116;-68
2021/04/25 09:30:58;;;;;;;5.90;1.73;;;11.60;48.30;;;;;;5033128;28;20328;-68
2021/04/25 09:33:27;;;;;;;6.32;1.83;;;11.70;47.00;;;;;;5027737;28;20068;-68
2021/04/25 09:35:59;;;;;;;7.82;1.60;;;11.80;47.40;;;;;;5026735;28;20072;-68
2021/04/25 09:38:34;;;;;;;4.45;1.40;;;11.90;45.90;;;;;;5025045;28;20324;-68
2021/04/25 09:41:01;;;;;;;5.35;1.95;;;12.00;45.30;;;;;;5027474;28;20349;-68
2021/04/25 09:43:39;;;;;;;7.88;2.40;;;12.10;45.10;;;;;;5030450;28;20049;-66
2021/04/25 09:46:06;;;;;;;9.85;2.42;;;12.30;43.40;;;;;;5023832;28;20850;-68
2021/04/25 09:48:34;;;;;;;6.97;1.77;;;12.40;43.50;;;;;;5027281;28;20080;-68
2021/04/25 09:51:08;;;;;;;;;;;12.50;43.70;;;;;;5033065;28;20469;-68
2021/04/25 09:53:35;;;;;;;5.22;1.80;;;12.70;42.50;;;;;;5026425;28;19917;-68
2021/04/25 09:56:03;;;;;;;7.85;1.85;;;12.90;42.80;;;;;;5028362;28;20072;-69
2021/04/25 09:58:30;;;;;;;4.80;1.73;;;13.00;42.30;;;;;;5027703;28;20060;-68
2021/04/25 10:00:57;;;;;;;6.28;1.80;;;13.20;42.10;;;;;;5033866;28;20232;-68
2021/04/25 10:03:35;;;;;;;5.18;1.63;;;13.60;40.40;;;;;;5031245;28;20132;-68
2021/04/25 10:06:05;;;;;;;4.63;1.60;;;14.20;39.20;;;;;;5026810;28;20230;-68
2021/04/25 10:08:34;;;;;;;;;;;14.90;38.20;;;;;;5028796;28;20371;-68
2021/04/25 10:11:06;;;;;;;8.52;2.22;;;15.60;37.80;;;;;;5034637;28;20608;-68
2021/04/25 10:13:36;;;;;;;4.38;1.70;;;16.60;35.80;;;;;;5031392;28;20049;-68
2021/04/25 10:16:03;;;;;;;7.85;1.73;;;17.70;33.90;;;;;;5030279;28;20715;-68
2021/04/25 10:18:30;;;;;;;5.53;1.83;;;18.90;29.60;;;;;;5026299;28;20053;-68
2021/04/25 10:20:57;;;;;;;5.68;1.73;;;19.40;29.30;;;;;;5025591;28;20459;-69
2021/04/25 10:23:25;;;;;;;8.73;2.45;;;19.90;28.50;;;;;;5019944;28;20533;-69
2021/04/25 10:25:54;;;;;;;6.68;1.85;;;20.70;27.20;;;;;;5029067;28;20061;-69
2021/04/25 10:28:29;;;;;;;10.20;1.92;;;20.90;27.40;;;;;;5032156;28;20060;-69
2021/04/25 10:31:07;;;;;;;6.45;2.40;;;20.80;28.10;;;;;;5032881;28;20053;-69
2021/04/25 10:33:58;;;;;;;5.93;1.60;;;21.40;27.00;;;;;;5030945;28;20069;-69
2021/04/25 10:36:59;;;;;;;5.28;1.90;;;21.70;25.50;;;;;;5046749;28;20060;-68
2021/04/25 10:39:47;;;;;;;;;;;22.10;25.10;;;;;;5053790;28;20073;-69
2021/04/25 10:42:29;;;;;;;5.25;1.65;;;22.40;24.00;;;;;;5058791;28;21419;-69
2021/04/25 10:45:24;;;;;;;4.22;1.67;;;22.90;25.20;;;;;;5057847;28;20244;-68
2021/04/25 10:48:22;;;;;;;5.40;2.03;;;23.10;24.40;;;;;;5061506;28;20056;-69
2021/04/25 10:50:51;;;;;;;5.97;3.03;;;23.60;23.80;;;;;;5054210;28;20049;-68
2021/04/25 10:53:24;;;;;;;6.63;2.30;;;24.20;22.90;;;;;;5047832;28;20050;-68
2021/04/25 10:56:30;;;;;;;8.68;2.38;;;24.40;22.80;;;;;;5054258;28;20072;-68
2021/04/25 10:59:27;;;;;;;7.38;2.45;;;24.70;22.80;;;;;;5051421;28;20049;-69
2021/04/25 11:01:55;;;;;;;7.80;3.50;;;25.30;22.20;;;;;;5047702;28;20057;-69
2021/04/25 11:04:57;;;;;;;6.82;2.65;;;25.50;21.80;;;;;;5047659;28;20048;-68
2021/04/25 11:07:48;;;;;;;7.90;2.33;;;26.00;21.10;;;;;;5048274;28;20648;-68
2021/04/25 11:10:20;;;;;;;5.00;2.15;;;25.80;21.00;;;;;;5052309;28;20361;-69
2021/04/25 11:12:48;;;;;;;5.68;2.00;;;26.00;21.20;;;;;;5063389;28;20057;-69
2021/04/25 11:15:50;;;;;;;5.93;2.10;;;26.20;20.70;;;;;;5048488;28;20103;-68
2021/04/25 11:18:49;;;;;;;6.57;1.73;;;25.60;21.50;;;;;;5045606;28;20608;-70
2021/04/25 11:21:50;;;;;;;6.80;1.92;;;26.00;20.90;;;;;;4983813;28;21765;-69
2021/04/25 11:24:34;;;;;;;7.68;2.20;;;26.60;20.50;;;;;;5046995;28;22980;-68
2021/04/25 11:27:06;;;;;;;19.40;9.57;;;26.70;20.30;;;;;;5060059;28;20586;-68
2021/04/25 11:30:00;;;;;;;6.45;2.67;;;27.30;19.30;;;;;;5049294;28;20060;-69
2021/04/25 11:32:39;;;;;;;17.05;2.10;;;26.70;19.40;;;;;;5048889;28;20435;-68
2021/04/25 11:35:21;;;;;;;4.90;1.85;;;26.90;19.50;;;;;;5046053;28;20428;-69
2021/04/25 11:37:49;;;;;;;4.45;1.65;;;26.80;19.00;;;;;;5047040;28;20052;-68
2021/04/25 11:40:24;;;;;;;5.38;1.75;;;26.80;18.60;;;;;;5046795;28;20052;-68
2021/04/25 11:42:52;;;;;;;5.57;1.40;;;27.00;18.60;;;;;;5047607;28;20053;-68
2021/04/25 11:45:29;;;;;;;7.88;1.85;;;27.60;17.30;;;;;;5043965;28;20053;-69
2021/04/25 11:48:00;;;;;;;6.50;1.80;;;27.80;17.70;;;;;;5043346;28;20056;-69
2021/04/25 11:50:33;;;;;;;6.55;1.67;;;28.00;17.80;;;;;;5045191;28;20045;-69
2021/04/25 11:53:08;;;;;;;6.75;2.92;;;28.00;17.60;;;;;;5048823;28;20348;-68
2021/04/25 11:55:35;;;;;;;5.53;2.28;;;28.00;18.00;;;;;;5048055;28;20108;-69
2021/04/25 11:58:03;;;;;;;3.63;1.10;;;28.20;17.20;;;;;;5048726;28;20069;-69
2021/04/25 12:00:32;;;;;;;3.67;1.60;;;28.30;16.70;;;;;;5052000;28;20097;-70
2021/04/25 12:03:04;;;;;;;3.83;1.48;;;28.80;16.70;;;;;;5046238;28;20559;-69
2021/04/25 12:05:33;;;;;;;4.53;1.50;;;28.30;16.30;;;;;;5073119;28;20072;-69
2021/04/25 12:08:03;;;;;;;4.53;1.42;;;28.10;16.70;;;;;;5059941;28;20571;-69
2021/04/25 12:10:32;;;;;;;3.15;1.35;;;28.60;16.00;;;;;;5062610;28;20243;-68
2021/04/25 12:13:14;;;;;;;4.00;1.33;;;28.70;15.60;;;;;;5059342;28;20695;-68
2021/04/25 12:15:44;;;;;;;5.47;1.40;;;27.60;16.20;;;;;;5058606;28;20055;-69
2021/04/25 12:18:19;;;;;;;5.50;1.50;;;28.50;16.10;;;;;;5061047;28;20056;-68
2021/04/25 12:20:48;;;;;;;5.40;1.05;;;28.20;17.10;;;;;;5064135;28;20044;-69
2021/04/25 12:23:20;;;;;;;4.25;1.10;;;29.00;15.10;;;;;;5067200;28;20076;-68
2021/04/25 12:25:47;;;;;;;6.72;1.35;;;28.80;14.80;;;;;;5061199;28;20060;-69
2021/04/25 12:28:17;;;;;;;4.43;1.52;;;29.10;14.80;;;;;;5061395;28;20362;-69
2021/04/25 12:30:45;;;;;;;2.90;1.38;;;29.20;13.60;;;;;;5061520;28;20066;-69
2021/04/25 12:33:14;;;;;;;8.25;1.30;;;29.10;14.00;;;;;;5060944;28;20044;-69
2021/04/25 12:35:44;;;;;;;4.77;1.47;;;29.70;13.20;;;;;;5060733;28;20051;-69
2021/04/25 12:38:20;;;;;;;5.38;1.55;;;29.40;13.20;;;;;;5060989;28;20053;-69
2021/04/25 12:41:00;;;;;;;9.73;1.45;;;29.80;13.20;;;;;;5060410;28;20056;-69
2021/04/25 12:43:33;;;;;;;5.55;1.60;;;29.50;13.40;;;;;;5059377;28;20428;-69
2021/04/25 12:46:11;;;;;;;3.00;1.10;;;28.50;14.20;;;;;;5064862;28;20226;-69
2021/04/25 12:48:40;;;;;;;4.72;1.35;;;29.20;14.10;;;;;;5062135;28;20060;-69
2021/04/25 12:51:17;;;;;;;3.58;1.08;;;29.20;13.50;;;;;;5061504;28;20051;-69
2021/04/25 12:53:47;;;;;;;3.95;1.10;;;29.30;13.90;;;;;;5061454;28;20128;-69
2021/04/25 12:56:25;;;;;;;3.97;1.25;;;28.80;14.30;;;;;;5078637;28;20367;-69
2021/04/25 12:59:08;;;;;;;4.30;1.33;;;29.60;14.10;;;;;;5062315;28;20051;-69
2021/04/25 13:01:37;;;;;;;4.82;1.40;;;30.40;13.50;;;;;;5056470;28;20380;-69
2021/04/25 13:04:27;;;;;;;4.45;1.38;;;30.00;13.20;;;;;;5061863;28;20121;-69
2021/04/25 13:07:16;;;;;;;4.90;1.50;;;29.90;12.70;;;;;;5062416;28;20060;-69
2021/04/25 13:09:44;;;;;;;5.03;1.50;;;29.80;13.70;;;;;;5062184;28;20048;-69
2021/04/25 13:12:19;;;;;;;5.13;1.15;;;29.70;14.50;;;;;;5062296;28;20040;-69